createdAt,value
2018-08-04T00:00:53.825Z,26.67
2018-08-04T00:03:22.208Z,22.97
2018-08-04T00:05:50.390Z,21.90
2018-08-04T00:08:18.597Z,22.60
2018-08-04T00:10:46.841Z,23.40
2018-08-04T00:13:15.141Z,24.13
2018-08-04T00:15:43.394Z,23.87
2018-08-04T00:18:11.601Z,25.60
2018-08-04T00:20:39.869Z,34.97
2018-08-04T00:23:08.070Z,28.57
2018-08-04T00:25:36.414Z,27.00
2018-08-04T00:28:04.681Z,34.20
2018-08-04T00:30:32.881Z,28.50
2018-08-04T00:33:01.138Z,29.57
2018-08-04T00:35:29.605Z,32.90
2018-08-04T00:37:57.843Z,33.00
2018-08-04T00:40:26.041Z,30.57
2018-08-04T00:42:54.254Z,25.80
2018-08-04T00:45:22.441Z,27.30
2018-08-04T00:47:50.398Z,28.00
2018-08-04T00:50:18.598Z,27.33
2018-08-04T00:52:46.556Z,26.87
2018-08-04T00:55:14.809Z,26.47
2018-08-04T00:57:43.474Z,25.33
2018-08-04T01:00:11.665Z,26.63
2018-08-04T01:02:39.902Z,26.50
2018-08-04T01:05:08.125Z,26.37
2018-08-04T01:07:36.337Z,25.90
2018-08-04T01:10:05.372Z,27.80
2018-08-04T01:12:33.895Z,27.17
2018-08-04T01:15:02.608Z,27.97
2018-08-04T01:17:31.561Z,25.47
2018-08-04T01:20:05.589Z,24.73
2018-08-04T01:22:35.115Z,26.37
2018-08-04T01:25:03.688Z,27.93
2018-08-04T01:27:31.908Z,30.30
2018-08-04T01:30:00.118Z,29.50
2018-08-04T01:32:28.425Z,30.00
2018-08-04T01:34:56.697Z,30.77
2018-08-04T01:37:24.995Z,28.90
2018-08-04T01:39:53.282Z,32.37
2018-08-04T01:42:21.679Z,28.60
2018-08-04T01:44:49.938Z,30.50
2018-08-04T01:47:18.350Z,34.13
2018-08-04T01:49:46.649Z,31.97
2018-08-04T01:52:14.877Z,33.10
2018-08-04T01:54:43.077Z,39.33
2018-08-04T01:57:11.319Z,52.63
2018-08-04T01:59:39.529Z,32.60
2018-08-04T02:02:07.732Z,31.97
2018-08-04T02:04:35.951Z,33.10
2018-08-04T02:07:04.162Z,28.93
2018-08-04T02:09:32.103Z,30.63
2018-08-04T02:12:00.344Z,31.20
2018-08-04T02:14:28.536Z,30.60
2018-08-04T02:16:56.746Z,30.73
2018-08-04T02:19:24.965Z,28.13
2018-08-04T02:21:53.176Z,27.40
2018-08-04T02:24:21.381Z,29.77
2018-08-04T02:26:49.713Z,28.33
2018-08-04T02:29:17.953Z,32.63
2018-08-04T02:31:46.418Z,31.60
2018-08-04T02:34:14.602Z,29.47
2018-08-04T02:36:42.926Z,29.83
2018-08-04T02:39:11.115Z,27.03
2018-08-04T02:41:39.326Z,28.07
2018-08-04T02:44:07.550Z,27.53
2018-08-04T02:46:35.770Z,27.00
2018-08-04T02:49:03.707Z,27.20
2018-08-04T02:51:31.923Z,25.27
2018-08-04T02:54:00.133Z,27.93
2018-08-04T02:56:28.339Z,28.30
2018-08-04T02:58:56.526Z,29.47
2018-08-04T03:01:24.754Z,29.43
2018-08-04T03:03:53.018Z,34.93
2018-08-04T03:06:21.218Z,33.30
2018-08-04T03:08:49.457Z,33.90
2018-08-04T03:11:17.783Z,30.80
2018-08-04T03:13:46.177Z,32.10
2018-08-04T03:16:14.406Z,29.00
2018-08-04T03:18:42.632Z,28.10
2018-08-04T03:21:10.878Z,30.23
2018-08-04T03:23:39.077Z,29.90
2018-08-04T03:26:07.309Z,31.20
2018-08-04T03:28:35.515Z,39.33
2018-08-04T03:31:03.766Z,31.03
2018-08-04T03:33:32.251Z,31.23
2018-08-04T03:36:00.467Z,27.57
2018-08-04T03:38:28.658Z,26.23
2018-08-04T03:40:56.906Z,26.73
2018-08-04T03:43:25.113Z,26.77
2018-08-04T03:45:53.293Z,29.30
2018-08-04T03:48:21.513Z,28.80
2018-08-04T03:50:49.721Z,27.70
2018-08-04T03:53:17.943Z,26.83
2018-08-04T03:55:46.722Z,31.93
2018-08-04T03:58:14.941Z,27.83
2018-08-04T04:00:43.129Z,25.47
2018-08-04T04:03:11.099Z,30.00
2018-08-04T04:05:39.310Z,28.73
2018-08-04T04:08:07.534Z,27.50
2018-08-04T04:10:35.724Z,25.87
2018-08-04T04:13:03.661Z,25.47
2018-08-04T04:15:31.870Z,22.40
2018-08-04T04:17:59.981Z,24.90
2018-08-04T04:20:28.237Z,36.37
2018-08-04T04:22:56.429Z,30.30
2018-08-04T04:25:24.653Z,28.50
2018-08-04T04:27:53.134Z,24.40
2018-08-04T04:30:21.355Z,25.10
2018-08-04T04:32:49.565Z,26.53
2018-08-04T04:35:17.786Z,26.20
2018-08-04T04:37:45.988Z,24.57
2018-08-04T04:40:14.476Z,27.93
2018-08-04T04:42:42.686Z,26.20
2018-08-04T04:45:10.935Z,25.53
2018-08-04T04:47:39.186Z,26.77
2018-08-04T04:50:07.461Z,28.87
2018-08-04T04:52:35.646Z,24.63
2018-08-04T04:55:04.124Z,23.20
2018-08-04T04:57:32.341Z,23.47
2018-08-04T05:00:00.537Z,22.10
2018-08-04T05:02:28.973Z,22.10
2018-08-04T05:04:57.165Z,22.30
2018-08-04T05:07:25.383Z,22.20
2018-08-04T05:09:53.771Z,22.87
2018-08-04T05:12:21.994Z,22.23
2018-08-04T05:14:50.205Z,20.93
2018-08-04T05:17:18.425Z,21.83
2018-08-04T05:19:46.636Z,21.97
2018-08-04T05:22:14.593Z,22.73
2018-08-04T05:24:43.155Z,21.70
2018-08-04T05:27:11.351Z,22.57
2018-08-04T05:29:39.545Z,25.50
2018-08-04T05:32:07.540Z,22.83
2018-08-04T05:34:35.773Z,22.20
2018-08-04T05:37:03.988Z,23.77
2018-08-04T05:39:32.287Z,22.40
2018-08-04T05:42:00.493Z,22.93
2018-08-04T05:44:28.673Z,21.07
2018-08-04T05:46:57.005Z,21.43
2018-08-04T05:49:25.203Z,25.10
2018-08-04T05:51:53.426Z,23.07
2018-08-04T05:54:21.637Z,24.20
2018-08-04T05:56:49.925Z,25.90
2018-08-04T05:59:18.458Z,22.80
2018-08-04T06:03:15.919Z,23.67
2018-08-04T06:05:44.129Z,23.17
2018-08-04T06:08:12.502Z,23.90
2018-08-04T06:10:40.726Z,24.67
2018-08-04T06:13:08.973Z,21.73
2018-08-04T06:15:37.201Z,24.33
2018-08-04T06:18:05.406Z,24.33
2018-08-04T06:20:33.638Z,26.40
2018-08-04T06:23:01.829Z,24.70
2018-08-04T06:25:30.106Z,23.53
2018-08-04T06:27:58.313Z,24.40
2018-08-04T06:30:26.732Z,25.63
2018-08-04T06:32:55.053Z,22.80
2018-08-04T06:35:23.291Z,23.50
2018-08-04T06:37:51.488Z,23.83
2018-08-04T06:40:19.938Z,24.93
2018-08-04T06:42:48.140Z,23.90
2018-08-04T06:45:16.349Z,22.20
2018-08-04T06:47:44.545Z,22.90
2018-08-04T06:50:12.745Z,23.53
2018-08-04T06:52:40.751Z,21.83
2018-08-04T06:55:08.950Z,23.43
2018-08-04T06:57:37.157Z,23.23
2018-08-04T07:00:06.298Z,23.77
2018-08-04T07:02:34.525Z,23.70
2018-08-04T07:05:02.729Z,23.43
2018-08-04T07:07:31.131Z,21.93
2018-08-04T07:09:59.325Z,23.47
2018-08-04T07:12:27.552Z,22.47
2018-08-04T07:14:55.763Z,23.00
2018-08-04T07:17:23.982Z,23.17
2018-08-04T07:19:52.857Z,23.27
2018-08-04T07:22:21.184Z,21.90
2018-08-04T07:24:49.422Z,23.03
2018-08-04T07:27:17.658Z,22.63
2018-08-04T07:29:46.101Z,21.67
2018-08-04T07:32:14.381Z,22.20
2018-08-04T07:34:42.601Z,22.53
2018-08-04T07:37:11.089Z,21.07
2018-08-04T07:39:39.292Z,22.00
2018-08-04T07:42:07.550Z,21.50
2018-08-04T07:44:35.789Z,21.73
2018-08-04T07:47:04.068Z,20.70
2018-08-04T07:49:32.275Z,21.90
2018-08-04T07:52:00.478Z,20.90
2018-08-04T07:54:28.693Z,22.20
2018-08-04T07:56:56.977Z,22.60
2018-08-04T07:59:25.208Z,21.47
2018-08-04T08:01:53.408Z,20.43
2018-08-04T08:04:21.581Z,20.70
2018-08-04T08:06:50.097Z,18.70
2018-08-04T08:09:18.326Z,19.80
2018-08-04T08:11:46.553Z,20.00
2018-08-04T08:14:14.759Z,18.10
2018-08-04T08:16:42.971Z,18.50
2018-08-04T08:19:11.177Z,18.17
2018-08-04T08:21:39.422Z,18.57
2018-08-04T08:24:08.181Z,17.90
2018-08-04T08:26:36.383Z,16.93
2018-08-04T08:29:04.662Z,18.47
2018-08-04T08:31:32.932Z,17.70
2018-08-04T08:34:01.124Z,18.50
2018-08-04T08:36:29.350Z,18.30
2018-08-04T08:38:57.548Z,17.20
2018-08-04T08:41:26.134Z,17.10
2018-08-04T08:43:54.585Z,17.30
2018-08-04T08:46:22.782Z,17.27
2018-08-04T08:48:51.158Z,17.67
2018-08-04T08:51:19.398Z,17.83
2018-08-04T08:53:47.690Z,17.80
2018-08-04T08:56:15.839Z,18.40
2018-08-04T08:58:44.121Z,16.43
2018-08-04T09:01:12.374Z,15.43
2018-08-04T09:03:40.602Z,15.30
2018-08-04T09:06:08.852Z,14.80
2018-08-04T09:08:37.149Z,13.87
2018-08-04T09:11:05.334Z,15.53
2018-08-04T09:13:33.616Z,16.10
2018-08-04T09:16:01.806Z,16.60
2018-08-04T09:18:30.046Z,15.77
2018-08-04T09:20:58.266Z,16.47
2018-08-04T09:23:26.522Z,16.10
2018-08-04T09:25:54.743Z,17.27
2018-08-04T09:28:23.221Z,15.63
2018-08-04T09:30:51.560Z,15.17
2018-08-04T09:33:19.736Z,16.00
2018-08-04T09:35:47.944Z,16.50
2018-08-04T09:38:16.188Z,16.40
2018-08-04T09:40:44.400Z,15.50
2018-08-04T09:43:12.858Z,15.47
2018-08-04T09:45:41.078Z,14.07
2018-08-04T09:48:09.310Z,12.63
2018-08-04T09:50:37.689Z,11.20
2018-08-04T09:53:05.976Z,13.80
2018-08-04T09:55:34.214Z,12.40
2018-08-04T09:58:02.489Z,11.13
2018-08-04T10:00:36.397Z,11.50
2018-08-04T10:03:04.639Z,11.57
2018-08-04T10:05:32.893Z,12.53
2018-08-04T10:08:01.147Z,11.80
2018-08-04T10:10:29.506Z,11.37
2018-08-04T10:12:57.753Z,13.20
2018-08-04T10:15:25.966Z,12.40
2018-08-04T10:17:54.182Z,13.00
2018-08-04T10:20:22.556Z,11.60
2018-08-04T10:22:50.754Z,11.40
2018-08-04T10:25:19.067Z,11.40
2018-08-04T10:27:47.537Z,11.53
2018-08-04T10:30:16.020Z,11.17
2018-08-04T10:32:44.481Z,10.60
2018-08-04T10:35:12.678Z,10.67
2018-08-04T10:37:40.954Z,11.50
2018-08-04T10:40:09.224Z,11.10
2018-08-04T10:42:37.437Z,11.93
2018-08-04T10:45:06.773Z,9.77
2018-08-04T10:47:35.031Z,10.90
2018-08-04T10:50:03.269Z,10.93
2018-08-04T10:52:31.485Z,9.17
2018-08-04T10:54:59.734Z,9.20
2018-08-04T10:57:27.974Z,9.57
2018-08-04T10:59:56.188Z,8.50
2018-08-04T11:02:24.642Z,8.43
2018-08-04T11:04:53.022Z,8.47
2018-08-04T11:07:21.209Z,7.97
2018-08-04T11:09:49.460Z,9.13
2018-08-04T11:12:17.638Z,9.00
2018-08-04T11:14:45.852Z,7.93
2018-08-04T11:17:14.112Z,7.23
2018-08-04T11:19:42.346Z,7.60
2018-08-04T11:22:10.738Z,7.67
2018-08-04T11:24:39.117Z,7.00
2018-08-04T11:27:07.358Z,7.10
2018-08-04T11:29:35.897Z,6.30
2018-08-04T11:32:04.154Z,7.73
2018-08-04T11:34:32.361Z,6.60
2018-08-04T11:37:00.574Z,5.67
2018-08-04T11:39:29.015Z,6.53
2018-08-04T11:41:57.189Z,6.33
2018-08-04T11:44:25.416Z,6.37
2018-08-04T11:46:53.601Z,6.37
2018-08-04T11:49:21.983Z,6.33
2018-08-04T11:51:50.257Z,6.60
2018-08-04T11:54:18.742Z,5.43
2018-08-04T11:56:46.937Z,5.77
2018-08-04T11:59:15.174Z,5.97
2018-08-04T12:01:43.433Z,5.40
2018-08-04T12:04:11.672Z,6.50
2018-08-04T12:06:39.876Z,6.10
2018-08-04T12:09:10.181Z,7.13
2018-08-04T12:11:38.397Z,7.40
2018-08-04T12:14:07.062Z,8.03
2018-08-04T12:16:35.293Z,7.93
2018-08-04T12:19:03.505Z,8.17
2018-08-04T12:21:31.892Z,7.10
2018-08-04T12:24:00.218Z,7.30
2018-08-04T12:26:28.581Z,7.60
2018-08-04T12:28:56.783Z,6.90
2018-08-04T12:31:25.251Z,6.80
2018-08-04T12:33:53.802Z,6.40
2018-08-04T12:36:22.066Z,6.37
2018-08-04T12:38:50.336Z,6.53
2018-08-04T12:41:18.785Z,6.10
2018-08-04T12:43:47.075Z,6.90
2018-08-04T12:46:15.333Z,5.93
2018-08-04T12:48:43.869Z,5.37
2018-08-04T12:51:12.113Z,6.20
2018-08-04T12:53:40.368Z,5.70
2018-08-04T12:56:08.538Z,6.90
2018-08-04T12:58:36.784Z,5.93
2018-08-04T13:01:05.078Z,6.03
2018-08-04T13:03:33.280Z,5.47
2018-08-04T13:06:01.514Z,5.80
2018-08-04T13:08:29.707Z,5.97
2018-08-04T13:10:57.962Z,5.80
2018-08-04T13:13:26.161Z,5.40
2018-08-04T13:15:54.647Z,5.77
2018-08-04T13:18:22.890Z,5.47
2018-08-04T13:20:51.194Z,6.17
2018-08-04T13:23:19.404Z,6.00
2018-08-04T13:25:47.604Z,5.63
2018-08-04T13:28:15.813Z,5.80
2018-08-04T13:30:44.298Z,6.27
2018-08-04T13:33:12.543Z,5.80
2018-08-04T13:35:40.886Z,6.20
2018-08-04T13:38:09.135Z,5.80
2018-08-04T13:40:37.483Z,5.93
2018-08-04T13:43:05.697Z,6.47
2018-08-04T13:45:33.954Z,5.30
2018-08-04T13:48:02.249Z,6.53
2018-08-04T13:50:30.481Z,7.43
2018-08-04T13:52:58.692Z,6.20
2018-08-04T13:55:26.927Z,6.23
2018-08-04T13:57:55.138Z,5.80
2018-08-04T14:00:23.368Z,6.17
2018-08-04T14:02:51.654Z,6.10
2018-08-04T14:05:20.036Z,6.17
2018-08-04T14:07:48.254Z,6.03
2018-08-04T14:10:16.485Z,6.10
2018-08-04T14:12:44.742Z,6.30
2018-08-04T14:15:12.938Z,6.00
2018-08-04T14:17:41.129Z,6.43
2018-08-04T14:20:09.387Z,6.30
2018-08-04T14:22:37.589Z,7.10
2018-08-04T14:25:06.041Z,6.20
2018-08-04T14:27:34.275Z,6.80
2018-08-04T14:30:02.643Z,6.87
2018-08-04T14:32:30.833Z,5.80
2018-08-04T14:34:59.153Z,5.90
2018-08-04T14:37:27.268Z,5.90
2018-08-04T14:39:55.487Z,5.90
2018-08-04T14:42:23.697Z,5.70
2018-08-04T14:44:51.892Z,5.77
2018-08-04T14:47:19.829Z,5.57
2018-08-04T14:49:48.029Z,6.00
2018-08-04T14:52:16.357Z,5.17
2018-08-04T14:54:44.577Z,5.73
2018-08-04T14:57:13.078Z,5.60
2018-08-04T14:59:41.285Z,6.40
2018-08-04T15:02:09.474Z,6.07
2018-08-04T15:04:37.783Z,6.07
2018-08-04T15:07:06.096Z,7.30
2018-08-04T15:09:34.361Z,6.50
2018-08-04T15:12:02.579Z,6.73
2018-08-04T15:14:30.943Z,7.77
2018-08-04T15:16:59.426Z,6.53
2018-08-04T15:19:27.632Z,6.80
2018-08-04T15:21:55.881Z,6.50
2018-08-04T15:24:24.459Z,6.50
2018-08-04T15:26:52.628Z,6.50
2018-08-04T15:29:20.849Z,7.63
2018-08-04T15:31:49.080Z,7.70
2018-08-04T15:34:17.321Z,7.60
2018-08-04T15:36:45.294Z,8.70
2018-08-04T15:39:13.748Z,7.70
2018-08-04T15:41:42.528Z,7.73
2018-08-04T15:44:10.761Z,7.77
2018-08-04T15:46:38.950Z,7.47
2018-08-04T15:49:07.319Z,7.23
2018-08-04T15:51:36.004Z,6.77
2018-08-04T15:54:04.198Z,6.83
2018-08-04T15:56:32.406Z,6.67
2018-08-04T15:59:00.337Z,6.70
2018-08-04T16:01:28.546Z,7.37
2018-08-04T16:03:57.208Z,6.53
2018-08-04T16:06:25.391Z,7.20
2018-08-04T16:08:53.638Z,6.37
2018-08-04T16:11:21.907Z,6.43
2018-08-04T16:13:50.136Z,6.33
2018-08-04T16:16:18.105Z,6.83
2018-08-04T16:18:46.329Z,7.10
2018-08-04T16:21:14.585Z,6.57
2018-08-04T16:23:42.810Z,7.80
2018-08-04T16:26:11.351Z,6.60
2018-08-04T16:28:39.579Z,6.80
2018-08-04T16:31:08.093Z,6.67
2018-08-04T16:33:36.293Z,6.63
2018-08-04T16:36:04.490Z,6.83
2018-08-04T16:38:32.735Z,6.50
2018-08-04T16:41:00.934Z,7.70
2018-08-04T16:43:29.140Z,6.83
2018-08-04T16:45:57.071Z,7.20
2018-08-04T16:48:25.633Z,7.43
2018-08-04T16:50:53.957Z,7.13
2018-08-04T16:53:22.165Z,8.90
2018-08-04T16:55:50.366Z,8.60
2018-08-04T16:58:18.557Z,8.00
2018-08-04T17:00:46.930Z,10.53
2018-08-04T17:03:15.290Z,8.30
2018-08-04T17:05:43.484Z,8.80
2018-08-04T17:08:11.740Z,8.00
2018-08-04T17:10:40.139Z,8.10
2018-08-04T17:13:08.378Z,7.33
2018-08-04T17:15:36.603Z,8.57
2018-08-04T17:18:05.004Z,8.10
2018-08-04T17:20:33.198Z,9.20
2018-08-04T17:23:01.423Z,7.47
2018-08-04T17:25:29.662Z,8.70
2018-08-04T17:27:57.887Z,8.70
2018-08-04T17:30:26.334Z,9.23
2018-08-04T17:32:54.558Z,9.83
2018-08-04T17:35:22.505Z,10.97
2018-08-04T17:37:50.773Z,10.17
2018-08-04T17:40:19.019Z,10.87
2018-08-04T17:42:47.274Z,10.90
2018-08-04T17:45:15.680Z,11.27
2018-08-04T17:47:43.886Z,10.00
2018-08-04T17:50:12.329Z,11.50
2018-08-04T17:52:40.521Z,10.70
2018-08-04T17:55:09.010Z,11.13
2018-08-04T17:57:37.475Z,11.27
2018-08-04T18:00:05.842Z,12.57
2018-08-04T18:02:34.054Z,12.53
2018-08-04T18:05:02.298Z,10.70
2018-08-04T18:07:30.520Z,10.73
2018-08-04T18:09:58.749Z,11.17
2018-08-04T18:12:26.949Z,11.07
2018-08-04T18:14:55.148Z,11.53
2018-08-04T18:17:23.264Z,11.53
2018-08-04T18:19:51.470Z,11.17
2018-08-04T18:22:19.737Z,15.23
2018-08-04T18:24:47.943Z,11.87
2018-08-04T18:27:16.157Z,11.67
2018-08-04T18:29:44.421Z,11.13
2018-08-04T18:32:12.598Z,11.30
2018-08-04T18:34:40.805Z,11.90
2018-08-04T18:37:09.262Z,11.60
2018-08-04T18:39:37.492Z,12.23
2018-08-04T18:42:05.721Z,11.30
2018-08-04T18:44:33.940Z,12.23
2018-08-04T18:47:02.165Z,12.17
2018-08-04T18:49:30.447Z,12.90
2018-08-04T18:51:58.653Z,12.30
2018-08-04T18:54:26.857Z,12.67
2018-08-04T18:56:55.074Z,11.83
2018-08-04T18:59:23.726Z,11.00
2018-08-04T19:01:52.115Z,11.40
2018-08-04T19:04:20.323Z,11.80
2018-08-04T19:06:48.544Z,12.13
2018-08-04T19:09:16.772Z,12.40
2018-08-04T19:11:44.983Z,12.50
2018-08-04T19:14:13.227Z,13.43
2018-08-04T19:16:41.493Z,13.37
2018-08-04T19:19:10.574Z,13.67
2018-08-04T19:21:38.777Z,13.97
2018-08-04T19:24:07.029Z,14.27
2018-08-04T19:26:35.222Z,14.23
2018-08-04T19:29:03.445Z,14.83
2018-08-04T19:31:31.674Z,14.40
2018-08-04T19:33:59.881Z,14.50
2018-08-04T19:36:28.263Z,13.60
2018-08-04T19:38:56.289Z,14.50
2018-08-04T19:41:24.517Z,14.50
2018-08-04T19:43:52.849Z,14.57
2018-08-04T19:46:21.054Z,13.97
2018-08-04T19:48:49.281Z,13.77
2018-08-04T19:51:17.514Z,12.20
2018-08-04T19:53:45.729Z,14.13
2018-08-04T19:56:14.300Z,12.83
2018-08-04T19:58:42.517Z,13.30
2018-08-04T20:01:10.754Z,13.50
2018-08-04T20:03:38.958Z,13.43
2018-08-04T20:06:07.193Z,13.80
2018-08-04T20:08:35.514Z,13.83
2018-08-04T20:11:03.946Z,14.50
2018-08-04T20:13:32.184Z,14.80
2018-08-04T20:16:00.410Z,16.20
2018-08-04T20:18:28.642Z,17.93
2018-08-04T20:20:56.869Z,15.83
2018-08-04T20:23:25.086Z,15.27
2018-08-04T20:25:53.289Z,14.53
2018-08-04T20:28:21.754Z,15.13
2018-08-04T20:30:49.862Z,14.10
2018-08-04T20:33:18.039Z,15.37
2018-08-04T20:35:46.283Z,14.43
2018-08-04T20:38:14.484Z,14.97
2018-08-04T20:40:42.771Z,14.73
2018-08-04T20:43:11.021Z,15.07
2018-08-04T20:45:39.389Z,14.77
2018-08-04T20:48:07.589Z,14.23
2018-08-04T20:50:36.021Z,15.00
2018-08-04T20:53:05.018Z,14.57
2018-08-04T20:55:33.267Z,14.63
2018-08-04T20:58:01.474Z,14.47
2018-08-04T21:00:35.148Z,15.80
2018-08-04T21:03:03.698Z,14.63
2018-08-04T21:05:31.952Z,16.17
2018-08-04T21:08:00.183Z,13.77
2018-08-04T21:10:28.393Z,14.00
2018-08-04T21:12:56.655Z,15.20
2018-08-04T21:15:25.061Z,14.83
2018-08-04T21:17:53.269Z,15.73
2018-08-04T21:20:21.538Z,15.50
2018-08-04T21:22:50.111Z,16.27
2018-08-04T21:25:18.313Z,17.40
2018-08-04T21:27:46.515Z,16.50
2018-08-04T21:30:14.722Z,16.80
2018-08-04T21:32:43.010Z,17.00
2018-08-04T21:35:11.466Z,17.50
2018-08-04T21:37:39.697Z,16.07
2018-08-04T21:40:07.969Z,16.63
2018-08-04T21:42:36.198Z,17.43
2018-08-04T21:45:04.785Z,18.77
2018-08-04T21:47:33.165Z,20.90
2018-08-04T21:50:01.660Z,19.27
2018-08-04T21:52:29.917Z,17.80
2018-08-04T21:54:58.417Z,21.00
2018-08-04T21:57:26.830Z,26.80
2018-08-04T21:59:55.059Z,19.47
2018-08-04T22:02:23.303Z,16.33
2018-08-04T22:04:51.505Z,17.20
2018-08-04T22:07:40.585Z,16.47
2018-08-04T22:10:09.065Z,17.07
2018-08-04T22:12:37.303Z,15.50
2018-08-04T22:15:05.666Z,15.10
2018-08-04T22:17:34.250Z,15.77
2018-08-04T22:20:02.501Z,14.80
2018-08-04T22:22:30.752Z,16.97
2018-08-04T22:24:58.993Z,17.07
2018-08-04T22:27:27.238Z,19.57
2018-08-04T22:29:55.831Z,23.93
2018-08-04T22:32:24.003Z,19.57
2018-08-04T22:34:52.245Z,19.57
2018-08-04T22:37:20.594Z,18.87
2018-08-04T22:39:48.788Z,19.87
2018-08-04T22:42:17.012Z,19.37
2018-08-04T22:44:56.430Z,22.80
2018-08-04T22:47:24.658Z,25.70
2018-08-04T22:49:53.364Z,26.33
2018-08-04T22:52:21.713Z,22.93
2018-08-04T22:54:49.965Z,24.03
2018-08-04T22:57:18.174Z,25.80
2018-08-04T22:59:46.382Z,25.37
2018-08-04T23:02:14.641Z,24.10
2018-08-04T23:04:42.922Z,28.73
2018-08-04T23:07:11.146Z,33.10
2018-08-04T23:09:39.133Z,31.77
2018-08-04T23:12:07.358Z,30.70
2018-08-04T23:14:35.589Z,28.70
2018-08-04T23:17:03.826Z,30.70
2018-08-04T23:19:32.035Z,30.43
2018-08-04T23:22:00.544Z,24.40
2018-08-04T23:24:28.761Z,28.70
2018-08-04T23:26:57.011Z,23.17
2018-08-04T23:29:25.196Z,22.83
2018-08-04T23:31:53.479Z,25.30
2018-08-04T23:34:21.693Z,21.53
2018-08-04T23:36:49.908Z,20.17
2018-08-04T23:39:18.269Z,19.27
2018-08-04T23:41:46.505Z,22.53
2018-08-04T23:44:14.751Z,19.17
2018-08-04T23:46:42.950Z,19.27
2018-08-04T23:49:11.165Z,20.27
2018-08-04T23:51:39.374Z,22.93
2018-08-04T23:54:07.611Z,24.83
2018-08-04T23:56:35.857Z,21.30
2018-08-04T23:59:04.087Z,24.87
